createdAt,value
2023-02-23T00:04:45.568Z,9.50
2023-02-23T00:09:50.917Z,9.50
2023-02-23T00:14:56.318Z,9.40
2023-02-23T00:20:01.132Z,9.40
2023-02-23T00:25:08.834Z,9.40
2023-02-23T00:30:16.891Z,9.40
2023-02-23T00:35:21.236Z,9.40
2023-02-23T00:40:25.352Z,9.40
2023-02-23T00:45:30.746Z,9.40
2023-02-23T00:50:34.834Z,9.40
2023-02-23T00:55:42.931Z,9.40
2023-02-23T01:00:48.570Z,9.40
2023-02-23T01:05:55.397Z,9.40
2023-02-23T01:10:59.987Z,9.30
2023-02-23T01:16:08.099Z,9.30
2023-02-23T01:21:17.893Z,9.30
2023-02-23T01:26:24.632Z,9.30
2023-02-23T01:31:31.645Z,9.30
2023-02-23T01:36:39.001Z,9.30
2023-02-23T01:41:43.920Z,9.30
2023-02-23T01:46:50.256Z,9.30
2023-02-23T01:51:59.932Z,9.20
2023-02-23T01:57:07.560Z,9.20
2023-02-23T02:02:14.239Z,9.20
2023-02-23T02:07:21.427Z,9.20
2023-02-23T02:12:26.273Z,9.10
2023-02-23T02:17:39.910Z,9.10
2023-02-23T02:23:36.779Z,9.10
2023-02-23T02:29:26.736Z,9.10
2023-02-23T02:35:10.129Z,9.10
2023-02-23T02:40:25.847Z,9.10
2023-02-23T02:45:38.469Z,9.00
2023-02-23T02:50:50.622Z,9.10
2023-02-23T02:55:59.831Z,9.10
2023-02-23T03:01:26.956Z,9.10
2023-02-23T03:06:52.174Z,9.10
2023-02-23T03:12:27.421Z,9.10
2023-02-23T03:17:56.992Z,9.10
2023-02-23T03:23:28.565Z,9.10
2023-02-23T03:28:54.810Z,9.10
2023-02-23T03:34:27.412Z,9.00
2023-02-23T03:39:54.942Z,9.10
2023-02-23T03:45:24.885Z,9.00
2023-02-23T03:50:54.511Z,9.00
2023-02-23T03:56:18.020Z,9.00
2023-02-23T04:01:42.197Z,9.00
2023-02-23T04:07:05.652Z,9.00
2023-02-23T04:12:34.162Z,9.00
2023-02-23T04:17:40.241Z,9.00
2023-02-23T04:22:44.253Z,9.00
2023-02-23T04:27:48.346Z,9.00
2023-02-23T04:32:53.808Z,9.00
2023-02-23T04:37:57.944Z,8.90
2023-02-23T04:43:02.201Z,8.90
2023-02-23T04:48:08.238Z,8.90
2023-02-23T04:53:12.242Z,8.80
2023-02-23T04:58:16.233Z,8.90
2023-02-23T05:03:21.591Z,8.90
2023-02-23T05:08:25.635Z,8.90
2023-02-23T05:13:29.589Z,8.90
2023-02-23T05:18:35.081Z,8.90
2023-02-23T05:23:39.754Z,8.80
2023-02-23T05:28:44.466Z,8.80
2023-02-23T05:33:49.841Z,8.80
2023-02-23T05:38:53.903Z,8.80
2023-02-23T05:43:57.855Z,8.80
2023-02-23T05:49:03.523Z,8.80
2023-02-23T05:54:07.863Z,8.80
2023-02-23T05:59:13.246Z,8.80
2023-02-23T06:04:19.193Z,8.80
2023-02-23T06:09:23.200Z,8.80
2023-02-23T06:14:27.371Z,8.80
2023-02-23T06:19:33.036Z,8.80
2023-02-23T06:24:37.071Z,8.80
2023-02-23T06:29:41.676Z,8.80
2023-02-23T06:34:47.032Z,8.80
2023-02-23T06:39:51.107Z,8.80
2023-02-23T06:44:55.106Z,8.80
2023-02-23T06:50:02.089Z,8.70
2023-02-23T06:55:08.089Z,8.70
2023-02-23T07:00:15.214Z,8.70
2023-02-23T07:05:21.004Z,8.70
2023-02-23T07:10:24.949Z,8.60
2023-02-23T07:15:29.172Z,8.60
2023-02-23T07:20:35.104Z,8.70
2023-02-23T07:25:39.055Z,8.60
2023-02-23T07:30:43.115Z,8.70
2023-02-23T07:35:50.470Z,8.70
2023-02-23T07:40:54.821Z,8.70
2023-02-23T07:46:01.892Z,8.80
2023-02-23T07:51:12.422Z,8.80
2023-02-23T07:56:16.409Z,8.90
2023-02-23T08:01:20.626Z,8.90
2023-02-23T08:06:26.305Z,8.90
2023-02-23T08:11:30.301Z,8.90
2023-02-23T08:16:34.913Z,9.00
2023-02-23T08:21:40.276Z,9.00
2023-02-23T08:26:44.709Z,9.10
2023-02-23T08:31:48.859Z,9.00
2023-02-23T08:36:54.519Z,9.10
2023-02-23T08:41:58.656Z,9.10
2023-02-23T08:47:04.707Z,9.20
2023-02-23T08:52:10.573Z,9.20
2023-02-23T08:57:14.792Z,9.20
2023-02-23T09:02:18.880Z,9.30
2023-02-23T09:07:25.735Z,9.30
2023-02-23T09:12:29.822Z,9.30
2023-02-23T09:17:33.869Z,9.40
2023-02-23T09:22:39.225Z,9.40
2023-02-23T09:27:43.242Z,9.50
2023-02-23T09:32:47.445Z,9.60
2023-02-23T09:37:54.902Z,9.60
2023-02-23T09:43:06.978Z,9.60
2023-02-23T09:48:17.660Z,9.60
2023-02-23T09:53:37.269Z,9.60
2023-02-23T09:58:41.710Z,9.70
2023-02-23T10:03:54.473Z,9.70
2023-02-23T10:09:15.887Z,9.80
2023-02-23T10:14:36.398Z,9.80
2023-02-23T10:19:49.271Z,9.90
2023-02-23T10:25:02.126Z,10.00
2023-02-23T10:30:20.047Z,10.10
2023-02-23T10:35:25.427Z,10.30
2023-02-23T10:40:35.673Z,10.40
2023-02-23T10:45:45.665Z,10.50
2023-02-23T10:50:53.064Z,10.40
2023-02-23T10:56:10.848Z,10.40
2023-02-23T11:01:18.924Z,10.50
2023-02-23T11:06:30.597Z,10.60
2023-02-23T11:11:35.881Z,10.60
2023-02-23T11:16:40.982Z,10.60
2023-02-23T11:21:52.731Z,10.70
2023-02-23T11:27:03.823Z,10.80
2023-02-23T11:32:13.664Z,10.90
2023-02-23T11:37:23.526Z,11.10
2023-02-23T11:42:33.519Z,11.20
2023-02-23T11:47:42.508Z,11.10
2023-02-23T11:52:46.625Z,11.00
2023-02-23T11:57:53.566Z,10.80
2023-02-23T12:03:00.259Z,10.80
2023-02-23T12:08:08.332Z,10.90
2023-02-23T12:13:26.801Z,10.90
2023-02-23T12:18:47.554Z,10.80
2023-02-23T12:24:02.230Z,10.70
2023-02-23T12:29:19.753Z,10.80
2023-02-23T12:34:29.538Z,11.10
2023-02-23T12:39:37.972Z,11.40
2023-02-23T12:44:48.707Z,11.40
2023-02-23T12:50:00.498Z,11.40
2023-02-23T12:55:05.332Z,11.40
2023-02-23T13:00:44.188Z,11.20
2023-02-23T13:05:53.205Z,11.00
2023-02-23T13:11:09.790Z,10.80
2023-02-23T13:16:23.980Z,10.80
2023-02-23T13:21:34.765Z,10.70
2023-02-23T13:26:48.678Z,10.60
2023-02-23T13:31:54.880Z,10.50
2023-02-23T13:37:01.494Z,10.50
2023-02-23T13:42:21.944Z,10.40
2023-02-23T13:47:39.888Z,10.30
2023-02-23T13:52:46.862Z,10.30
2023-02-23T13:57:51.069Z,10.20
2023-02-23T14:02:57.264Z,10.20
2023-02-23T14:08:05.308Z,10.30
2023-02-23T14:13:30.076Z,10.30
2023-02-23T14:18:36.042Z,10.20
2023-02-23T14:23:53.392Z,10.20
2023-02-23T14:29:27.799Z,10.30
2023-02-23T14:34:51.181Z,10.30
2023-02-23T14:40:02.160Z,10.20
2023-02-23T14:45:18.839Z,10.20
2023-02-23T14:50:33.167Z,10.20
2023-02-23T14:55:43.480Z,10.20
2023-02-23T15:00:49.046Z,10.30
2023-02-23T15:05:58.910Z,10.30
2023-02-23T15:11:06.810Z,10.40
2023-02-23T15:16:17.591Z,10.40
2023-02-23T15:21:25.221Z,10.40
2023-02-23T15:26:32.241Z,10.40
2023-02-23T15:31:36.774Z,10.40
2023-02-23T15:36:44.248Z,10.40
2023-02-23T15:41:50.323Z,10.40
2023-02-23T15:46:57.924Z,10.40
2023-02-23T15:52:08.236Z,10.40
2023-02-23T15:57:22.815Z,10.30
2023-02-23T16:02:27.660Z,10.30
2023-02-23T16:07:43.397Z,10.30
2023-02-23T16:12:51.281Z,10.20
2023-02-23T16:18:00.796Z,10.20
2023-02-23T16:23:07.875Z,10.30
2023-02-23T16:28:19.120Z,10.20
2023-02-23T16:33:25.386Z,10.20
2023-02-23T16:38:37.229Z,10.20
2023-02-23T16:43:41.545Z,10.10
2023-02-23T16:48:46.012Z,10.10
2023-02-23T16:53:52.611Z,10.10
2023-02-23T16:59:03.590Z,10.10
2023-02-23T17:04:15.377Z,10.10
2023-02-23T17:09:27.679Z,10.00
2023-02-23T17:14:32.582Z,10.00
2023-02-23T17:19:36.895Z,9.90
2023-02-23T17:24:43.493Z,9.90
2023-02-23T17:29:47.539Z,9.90
2023-02-23T17:34:52.282Z,9.90
2023-02-23T17:39:57.637Z,9.90
2023-02-23T17:45:02.712Z,9.90
2023-02-23T17:50:07.920Z,9.90
2023-02-23T17:55:13.326Z,9.90
2023-02-23T18:00:20.272Z,9.90
2023-02-23T18:05:24.403Z,9.80
2023-02-23T18:10:29.885Z,9.70
2023-02-23T18:15:34.357Z,9.70
2023-02-23T18:20:38.308Z,9.60
2023-02-23T18:25:44.027Z,9.60
2023-02-23T18:30:48.635Z,9.50
2023-02-23T18:35:52.623Z,9.40
2023-02-23T18:40:58.806Z,9.30
2023-02-23T18:46:07.135Z,9.30
2023-02-23T18:51:14.239Z,9.20
2023-02-23T18:56:23.294Z,9.20
2023-02-23T19:01:30.242Z,9.20
2023-02-23T19:06:37.460Z,9.10
2023-02-23T19:11:44.541Z,9.10
2023-02-23T19:16:49.358Z,9.00
2023-02-23T19:21:53.347Z,9.00
2023-02-23T19:27:02.370Z,8.90
2023-02-23T19:32:07.062Z,8.90
2023-02-23T19:37:11.347Z,8.80
2023-02-23T19:42:19.357Z,8.70
2023-02-23T19:47:23.463Z,8.70
2023-02-23T19:52:28.884Z,8.60
2023-02-23T19:57:34.457Z,8.50
2023-02-23T20:02:42.604Z,8.50
2023-02-23T20:07:46.733Z,8.50
2023-02-23T20:12:52.657Z,8.40
2023-02-23T20:17:56.706Z,8.40
2023-02-23T20:23:00.969Z,8.40
2023-02-23T20:28:07.995Z,8.30
2023-02-23T20:33:13.642Z,8.40
2023-02-23T20:38:17.762Z,8.30
2023-02-23T20:43:23.420Z,8.30
2023-02-23T20:48:28.386Z,8.20
2023-02-23T20:53:32.499Z,8.10
2023-02-23T20:58:39.740Z,8.00
2023-02-23T21:03:44.054Z,7.90
2023-02-23T21:08:49.011Z,7.90
2023-02-23T21:13:55.176Z,7.80
2023-02-23T21:19:04.995Z,7.80
2023-02-23T21:24:09.735Z,7.70
2023-02-23T21:29:16.580Z,7.60
2023-02-23T21:34:21.617Z,7.60
2023-02-23T21:39:27.437Z,7.50
2023-02-23T21:44:33.009Z,7.50
2023-02-23T21:49:38.548Z,7.40
2023-02-23T21:54:46.663Z,7.30
2023-02-23T21:59:52.435Z,7.30
2023-02-23T22:04:56.598Z,7.20
2023-02-23T22:10:00.814Z,7.20
2023-02-23T22:15:10.328Z,7.10
2023-02-23T22:20:15.505Z,7.10
2023-02-23T22:25:21.453Z,7.00
2023-02-23T22:30:28.433Z,7.00
2023-02-23T22:35:32.473Z,6.90
2023-02-23T22:40:39.820Z,6.90
2023-02-23T22:45:45.440Z,6.90
2023-02-23T22:50:50.194Z,6.90
2023-02-23T22:55:56.076Z,6.90
2023-02-23T23:01:05.795Z,6.90
2023-02-23T23:06:11.894Z,6.90
2023-02-23T23:11:18.995Z,6.90
2023-02-23T23:16:32.290Z,6.80
2023-02-23T23:21:37.405Z,6.80
2023-02-23T23:26:42.954Z,6.70
2023-02-23T23:31:48.686Z,6.70
2023-02-23T23:36:53.565Z,6.60
2023-02-23T23:41:57.972Z,6.60
2023-02-23T23:47:05.487Z,6.50
2023-02-23T23:52:09.929Z,6.50
2023-02-23T23:57:14.455Z,6.50
